ROMMA est une association bénévole à but non lucratif. Votre soutien est indispensable : ADHERER à ROMMA ou FAIRE un DON

Briord - (01, Ain)

Bugey (281 m)   Longitude: 05° 29' 13" E   Latitude: 45° 46' 37" N Station partenaire n°15
 

Détail journalier du     <<     >>

Température Precipitation Humidité Pression Vent Dir Rafale Dir. rafale Ensol.
Heure (°C) (mm) (%) (hPa) (km/h) (km/h) (min)
01:00 27.6058101303ENE0
02:00 27.705710131---13S0
03:00 25.2065101403SE0
04:00 23.9068101400---0
05:00 22.9068101300---0
06:00 22.5068101300---0
07:00 21.7071101300---0
08:00 20.7074101302SE0
09:00 20.7076101400---0
10:00 22.2075101400---0
11:00 27.6060101402SSE0
12:00 30.805310141SE11SE0
13:00 32.904510135SE18SSE0
14:00 33.704310135SE18SE15
15:00 35.603910133SE15SSE60
16:00 35.904010135O21ONO60
17:00 36.603610125SSE24S60
18:00 37.303510115O29S60
19:00 37.603310115O21ONO60
20:00 37.703010105S26O60
21:00 36.903210114SSE23S50
22:00 34.603510112S15ONO0
23:00 32.803710111SE11SSE0
minuit 31.304010132ESE10SSE0

Graphique du 25-07-2019

 

Serveur OMMA